默认 日期 大小 文件数 浏览量 最新下载 xml
dts 10磁力链接相关资源由用户搜索指令自动获取,结果来源于网络,本站不存储任何资料,亦不承担任何责任,请于24小时内删除,搜索到1635个磁力,用时37ms。
    {"Tell.No.One.2006.BluRay.720p.x264.DTS.MySilu.mkv": 6290691177, "Tell.No.One.2006.BluRay.720p.x264.DTS.MySilu.nfo": 3690, "Tell.No.One.2006.BluRay.720p.x264.DTS.MySilu.Sample.mkv": 55679522}
创建时间: 2021-03-11 06:30:52 大小:5.91 GB 文件数量:3 热度:7 最近下载:2025-07-16 03:03:02
    {"Amores.Perros.2000.BluRay.720p.x264.DTS-MySiLU.mkv": 7046923481, "Amores.Perros.2000.BluRay.720p.x264.DTS-MySiLU.nfo": 3704, "Amores.Perros.2000.BluRay.720p.x264.DTS-MySiLU.Sample.mkv": 45652692}
创建时间: 2021-03-13 18:45:28 大小:6.61 GB 文件数量:3 热度:4 最近下载:2025-01-19 05:51:04
    ... .2011.Blu-ray.1080p.x264.DTS.MySilu.Sample.mkv": 91224610, "Circle ... .2011.Blu-ray.1080p.x264.DTS.MySilu.Sample.mkv": 84814661, " ... .2011.Blu-ray.1080p.x264.DTS.MySilu.Sample.mkv": 118179497, "Circle ... .2011.Blu-ray.1080p.x264.DTS.MySilu.Sample.mkv": 92680969, " ...
创建时间: 2021-03-15 13:36:24 大小:22.33 GB 文件数量:15 热度:7 最近下载:2025-10-15 03:47:01
    ... Last.Warrior.2018.BluRay.1080p.DTS-HD.MA.5.1. ... Last.Warrior.2018.BluRay.1080p.DTS-HD.MA.5.1. ... .Warrior.2018.BluRay.1080p.DTS-HD.MA.5.1. ... .Warrior.2018.BluRay.1080p.DTS-HD.MA.5.1. ... .Warrior.2018.BluRay.1080p.DTS-HD.MA.5.1. ... .Warrior.2018.BluRay.1080p.DTS-HD.MA.5.1. ...
创建时间: 2021-03-17 11:44:37 大小:10.44 GB 文件数量:11 热度:45 最近下载:2025-10-17 10:38:03
    ... -ray.REMUX.H264.1080P.LPCM.DTS.MySilu.ts": 30379958700, "IP. ... -ray.REMUX.H264.1080P.LPCM.DTS.MySilu.ts.par2": 59048, ... ray.REMUX.H264.1080P.LPCM.DTS.MySilu.ts.vol0+1. ... ray.REMUX.H264.1080P.LPCM.DTS.MySilu.ts.vol1+2. ... ray.REMUX.H264.1080P.LPCM.DTS.MySilu.ts.vol3+4. ...
创建时间: 2021-03-17 13:04:35 大小:28.36 GB 文件数量:5 热度:5 最近下载:2025-04-05 09:32:04
    {"360.2011.Blu-ray.1080p.x264.DTS.MySilu.mkv": 11277041858, "360.2011.Blu-ray.1080p.x264.DTS.MySilu.nfo": 4095, "360.2011.Blu-ray.1080p.x264.DTS.MySilu.Sample.mkv": 102634002}
创建时间: 2021-03-18 02:36:28 大小:10.6 GB 文件数量:3 热度:6 最近下载:2025-04-05 15:48:01
    ... Cut 2009 1080p BluRay 10-Bit DTS-HD HR 5.1 ... Cut 2009 1080p BluRay 10-Bit DTS-HD HR 5.1 ... Cut 2009 1080p BluRay 10-Bit DTS-HD HR 5.1 ... Cut 2009 1080p BluRay 10-Bit DTS-HD HR 5.1 ... Cut 2009 1080p BluRay 10-Bit DTS-HD HR 5.1 ... Cut 2009 1080p BluRay 10-Bit DTS-HD HR 5.1 ...
创建时间: 2021-03-18 03:05:52 大小:6.91 GB 文件数量:8 热度:6 最近下载:2025-09-28 21:54:02
    ... .Nightmare.1991.BluRay.1080p.x264.DTS.MySilu.mkv": 7508298703, "Freddy's ... .Nightmare.1991.BluRay.1080p.x264.DTS.MySilu.nfo": 3745, "Freddy's ... .Nightmare.1991.BluRay.1080p.x264.DTS.MySilu.Sample.mkv": 91705917}
创建时间: 2021-03-20 04:28:07 大小:7.08 GB 文件数量:3 热度:3 最近下载:2025-01-06 03:24:01
    ... "15 Space.flac": 123627419, "10 Iko Iko.png": 11830, "__ia_thumb ... jpg": 1399, "10 Iko Iko.afpk": 245520, "10 Iko Iko.flac ... png": 136475, "gd1990-07-10.150397.dts.tobin.flac16_meta.xml": 4835, ... -10.150397.dts.tobin.flac16_rules.conf": 9, "gd1990-07-10.150397.dts ...
创建时间: 2021-03-20 07:33:48 大小:1.35 GB 文件数量:83 热度:1 最近下载:2025-01-03 06:45:09
    {"RARBG.com.txt": 34, "10.pravidel.jak.sbalit.holku.2014.720p.BluRay.DTS.x264-DON.mkv": 5340173688, "10.pravidel.jak.sbalit.holku.2014.720p.BluRay.DTS.x264-DON.nfo": 5005}
创建时间: 2021-03-21 19:36:10 大小:4.97 GB 文件数量:3 热度:2 最近下载:2025-01-11 07:27:09
    ... Ring 2002 1080p BluRay 10-Bit DTS-HD MA 5.1 ... Ring 2002 1080p BluRay 10-Bit DTS-HD MA 5.1 ... Ring 2002 1080p BluRay 10-Bit DTS-HD MA 5.1 ... Ring 2002 1080p BluRay 10-Bit DTS-HD MA 5.1 ... Ring 2002 1080p BluRay 10-Bit DTS-HD MA 5. ... Ring 2002 1080p BluRay 10-Bit DTS-HD MA 5. ...
创建时间: 2021-03-23 04:23:07 大小:14.37 GB 文件数量:7 热度:7 最近下载:2025-01-21 19:26:03
    {"Murder.II.2011.BluRay.720p.x264.DTS.MySilu.mkv": 6088840600, "Murder.II.2011.BluRay.720p.x264.DTS.MySilu.nfo": 3684, "Murder.II.2011.BluRay.720p.x264.DTS.MySilu.Sample.mkv": 45839107}
创建时间: 2021-03-24 16:32:09 大小:5.71 GB 文件数量:3 热度:3 最近下载:2025-02-16 18:39:01
    {"Murder.II.2011.BluRay.1080p.x264.DTS.MySilu.mkv": 11722879651, "Murder.II.2011.BluRay.1080p.x264.DTS.MySilu.nfo": 3685, "Murder.II.2011.BluRay.1080p.x264.DTS.MySilu.Sample.mkv": 115648197}
创建时间: 2021-03-24 18:47:50 大小:11.03 GB 文件数量:3 热度:3 最近下载:2025-02-11 14:42:02
    {"Face.Off.1997.BluRay.1080p.DTS-ES.6.1.x265.10bit- ...
创建时间: 2021-03-28 09:28:21 大小:10.17 GB 文件数量:5 热度:103 最近下载:2025-10-05 21:05:03
    {"Wake.Wood.2011.BluRay.1080p.x264.DTS.MySilu.mkv": 8523663877, "Wake.Wood.2011.BluRay.1080p.x264.DTS.MySilu.nfo": 3689, "Wake.Wood.2011.BluRay.1080p.x264.DTS.MySilu.Sample.mkv": 83262818}
创建时间: 2021-03-28 16:51:24 大小:8.02 GB 文件数量:3 热度:5 最近下载:2025-01-04 10:54:02
    {"Wake.Wood.2011.BluRay.720p.x264.DTS.MySilu.mkv": 4159424123, "Wake.Wood.2011.BluRay.720p.x264.DTS.MySilu.nfo": 3688, "Wake.Wood.2011.BluRay.720p.x264.DTS.MySilu.sample.mkv": 42806847}
创建时间: 2021-03-29 06:32:21 大小:3.91 GB 文件数量:3 热度:4 最近下载:2025-02-16 07:49:02
    {"Funhouse.2019.BluRay.1080p.DTS-HD.MA.5.1.x265. ...
创建时间: 2021-03-30 01:53:11 大小:10.81 GB 文件数量:5 热度:29 最近下载:2025-09-27 00:32:04
    {"The.Widow.2020.BluRay.1080p.DTS-HDMA5.1.x264-BBQDDQ.mkv": ...
创建时间: 2021-03-31 06:23:43 大小:10.49 GB 文件数量:5 热度:20 最近下载:2025-09-27 00:42:02
    ... .2007.Bluray.1080p.x265.10bit.DTS-BBQDDQ 10.66GB.mkv": 11447996674}
创建时间: 2021-03-31 07:33:59 大小:10.66 GB 文件数量:5 热度:72 最近下载:2025-10-05 18:22:04
    ... -ray.REMUX.h264.1080P.DTSHDMA.DTS.DualAudio.MySilu.ts": 31068490276, " ... ray.REMUX.h264.1080P.DTSHDMA.DTS.DualAudio.MySilu.ts.par2": 60392 ... ray.REMUX.h264.1080P.DTSHDMA.DTS.DualAudio.MySilu.ts.vol0+1 ... ray.REMUX.h264.1080P.DTSHDMA.DTS.DualAudio.MySilu.ts.vol1+2 ...
创建时间: 2021-04-06 14:20:33 大小:28.99 GB 文件数量:5 热度:11 最近下载:2025-06-05 13:14:01